East Danville, Ohio
Current Conditions -  °F | °C
As of 5:54 PM on Saturday 25 Oct 2014 (Local Time) from KILN Reporting Station
Clear Clear  
Wind Chill: 69°   Ceiling: Unl
Heat Index: 69°   Visibility: 10mi
Dew Point: 53°   Wind: 14mph
Humidity: 57%   Direction: 250°WSW
Pressure: 29.89"   Gusts: NA
Location:  39.1546°N, 83.569°W
Report Text: KILN 252154Z AUTO 25012KT 10SM CLR 21/12 A2989 RMK AO2 RAE25 SLP125 P0000 T02060117
Loading
Personal Weather Stations






























Interactive Weather Map
Tropical Storm Tracking
New forecast layout! Learn more

10-Day Weather Forecast

Advertisements
Track Severe Weather on mobile